Time;durP1;ratioP1;P1;durP2;ratioP2;P2;SDS_P1;SDS_P2;PMS_P1;PMS_P2;Temp;Humidity;BMP_temperature;BMP_pressure;BME280_temperature;BME280_humidity;BME280_pressure;Samples;Min_cycle;Max_cycle;Signal;HPM_P1;HPM_P2
2023/03/24 00:00:42;;;;;;;3.30;2.33;;;12.50;99.90;;;;;;4965531;28;20202;-64
2023/03/24 00:03:09;;;;;;;4.27;2.13;;;12.50;99.90;;;;;;4967680;28;20280;-65
2023/03/24 00:05:37;;;;;;;3.67;2.47;;;12.50;99.90;;;;;;4961868;28;20205;-65
2023/03/24 00:08:07;;;;;;;2.90;2.50;;;12.50;99.90;;;;;;4965825;28;20635;-64
2023/03/24 00:10:35;;;;;;;4.10;2.60;;;12.50;99.90;;;;;;4949435;28;20205;-64
2023/03/24 00:13:04;;;;;;;4.23;2.10;;;12.50;99.90;;;;;;4966891;28;20202;-64
2023/03/24 00:15:33;;;;;;;5.13;2.23;;;12.50;99.90;;;;;;4964296;28;20218;-63
2023/03/24 00:18:00;;;;;;;2.03;1.73;;;12.50;99.90;;;;;;4966015;28;20221;-65
2023/03/24 00:20:28;;;;;;;2.40;1.90;;;12.50;99.90;;;;;;4967856;28;20634;-65
2023/03/24 00:22:57;;;;;;;2.10;1.97;;;12.50;99.90;;;;;;4964515;28;20203;-65
2023/03/24 00:25:28;;;;;;;2.40;1.93;;;12.50;99.90;;;;;;4967754;28;20454;-65
2023/03/24 00:27:59;;;;;;;3.93;1.90;;;12.50;99.90;;;;;;4966590;28;20211;-64
2023/03/24 00:30:30;;;;;;;2.50;2.10;;;12.40;99.90;;;;;;4966971;28;20204;-65
2023/03/24 00:33:00;;;;;;;2.20;1.70;;;12.50;99.90;;;;;;4945739;28;20308;-64
2023/03/24 00:35:28;;;;;;;3.50;2.07;;;12.40;99.90;;;;;;4959738;28;20284;-64
2023/03/24 00:37:56;;;;;;;4.00;1.90;;;12.40;99.90;;;;;;4944174;28;20296;-64
2023/03/24 00:40:23;;;;;;;3.30;2.50;;;12.40;99.90;;;;;;4943848;28;20210;-64
2023/03/24 00:42:51;;;;;;;3.20;2.43;;;12.30;99.90;;;;;;4958889;28;20229;-65
2023/03/24 00:45:24;;;;;;;3.80;2.03;;;12.40;99.90;;;;;;4962109;28;20540;-65
2023/03/24 00:47:57;;;;;;;2.90;2.20;;;12.40;99.90;;;;;;4938284;29;20624;-64
2023/03/24 00:50:26;;;;;;;2.10;1.80;;;12.30;99.90;;;;;;4953265;28;20197;-64
2023/03/24 00:52:54;;;;;;;6.93;3.07;;;12.40;99.90;;;;;;4957065;28;20212;-64
2023/03/24 00:55:21;;;;;;;5.33;2.90;;;12.30;99.90;;;;;;4955030;28;20523;-63
2023/03/24 00:57:49;;;;;;;5.63;3.17;;;12.40;99.90;;;;;;4951373;28;20512;-64
2023/03/24 01:00:19;;;;;;;3.57;2.70;;;12.30;99.90;;;;;;4961581;28;20215;-64
2023/03/24 01:02:52;;;;;;;3.23;2.43;;;12.20;99.90;;;;;;4945107;29;20249;-64
2023/03/24 01:05:20;;;;;;;3.33;2.23;;;12.20;99.90;;;;;;4959268;28;20192;-64
2023/03/24 01:07:50;;;;;;;2.80;2.33;;;12.20;99.90;;;;;;4959902;28;20307;-65
2023/03/24 01:10:25;;;;;;;2.57;2.37;;;12.10;99.90;;;;;;4957413;28;20204;-65
2023/03/24 01:12:53;;;;;;;3.93;2.90;;;12.10;99.90;;;;;;4936494;29;20221;-65
2023/03/24 01:15:25;;;;;;;3.73;2.53;;;12.10;99.90;;;;;;4956719;28;20210;-65
2023/03/24 01:17:53;;;;;;;2.73;2.43;;;12.10;99.90;;;;;;4937261;29;20217;-65
2023/03/24 01:20:21;;;;;;;4.00;2.87;;;12.00;99.90;;;;;;4954125;28;20206;-65
2023/03/24 01:22:51;;;;;;;2.60;2.30;;;12.00;99.90;;;;;;4953109;28;20663;-64
2023/03/24 01:25:22;;;;;;;2.70;2.40;;;12.00;99.90;;;;;;4956443;28;20721;-64
2023/03/24 01:27:51;;;;;;;2.23;2.00;;;12.00;99.90;;;;;;4963928;28;20677;-64
2023/03/24 01:30:25;;;;;;;2.43;1.83;;;11.90;99.90;;;;;;4936893;29;20717;-64
2023/03/24 01:32:53;;;;;;;1.90;1.80;;;11.90;99.90;;;;;;4953702;28;20216;-64
2023/03/24 01:35:22;;;;;;;2.13;1.90;;;11.90;99.90;;;;;;4950814;28;20675;-64
2023/03/24 01:37:51;;;;;;;2.17;1.90;;;11.90;99.90;;;;;;4965997;28;20210;-64
2023/03/24 01:40:21;;;;;;;4.03;2.30;;;11.90;99.90;;;;;;4967204;28;20293;-64
2023/03/24 01:42:49;;;;;;;1.83;1.70;;;11.90;99.90;;;;;;4962184;28;20198;-64
2023/03/24 01:45:59;;;;;;;1.90;1.73;;;11.90;99.90;;;;;;4977106;28;20203;-64
2023/03/24 01:48:30;;;;;;;4.00;1.77;;;12.00;99.90;;;;;;4935183;28;20221;-64
2023/03/24 01:51:01;;;;;;;2.20;2.00;;;12.00;99.90;;;;;;4947303;29;20210;-65
2023/03/24 01:53:32;;;;;;;2.70;2.10;;;12.00;99.90;;;;;;4948591;28;20239;-65
2023/03/24 01:56:01;;;;;;;1.80;1.70;;;12.00;99.90;;;;;;4968698;28;20284;-65
2023/03/24 01:58:37;;;;;;;2.30;2.10;;;12.00;99.90;;;;;;4947120;28;20336;-64
2023/03/24 02:01:11;;;;;;;2.10;2.00;;;12.00;99.90;;;;;;4952259;28;20236;-64
2023/03/24 02:04:15;;;;;;;2.30;2.10;;;12.00;99.90;;;;;;4955131;28;20254;-64
2023/03/24 02:06:44;;;;;;;3.17;2.40;;;12.00;99.90;;;;;;4943400;28;20259;-64
2023/03/24 02:09:15;;;;;;;2.37;2.17;;;12.00;99.90;;;;;;4962296;28;20207;-64
2023/03/24 02:11:43;;;;;;;2.00;1.80;;;11.90;99.90;;;;;;4970239;28;20710;-64
2023/03/24 02:14:12;;;;;;;3.43;2.50;;;11.90;99.90;;;;;;4944125;28;20501;-65
2023/03/24 02:16:56;;;;;;;2.10;2.00;;;11.90;99.90;;;;;;4952480;28;20574;-65
2023/03/24 02:19:51;;;;;;;2.73;2.03;;;11.90;99.90;;;;;;4959782;28;20718;-64
2023/03/24 02:22:42;;;;;;;2.63;2.10;;;11.90;99.90;;;;;;4938612;28;20657;-65
2023/03/24 02:25:42;;;;;;;2.13;1.93;;;11.90;99.90;;;;;;4952774;28;20212;-65
2023/03/24 02:28:22;;;;;;;4.90;2.50;;;11.90;99.90;;;;;;4966377;28;20267;-65
2023/03/24 02:31:35;;;;;;;3.77;2.40;;;11.90;99.90;;;;;;4970188;28;20663;-65
2023/03/24 02:34:28;;;;;;;2.80;2.60;;;12.00;99.90;;;;;;4950940;28;20243;-64
2023/03/24 02:37:27;;;;;;;4.00;2.70;;;11.90;99.90;;;;;;4945996;28;20213;-65
2023/03/24 02:40:12;;;;;;;4.50;3.07;;;11.90;99.90;;;;;;4952500;28;20214;-64
2023/03/24 02:42:49;;;;;;;6.50;3.60;;;12.00;99.90;;;;;;4965861;28;20299;-64
2023/03/24 02:45:26;;;;;;;4.07;3.40;;;12.00;99.90;;;;;;4954249;28;20292;-64
2023/03/24 02:48:11;;;;;;;9.47;4.90;;;12.00;99.90;;;;;;4947543;28;20279;-65
2023/03/24 02:50:45;;;;;;;7.47;4.80;;;12.00;99.90;;;;;;4946911;28;20219;-65
2023/03/24 02:53:18;;;;;;;7.50;4.47;;;11.90;99.90;;;;;;4944047;29;20596;-64
2023/03/24 02:56:11;;;;;;;6.77;4.17;;;11.90;99.90;;;;;;4964957;28;20607;-64
2023/03/24 02:58:44;;;;;;;7.20;3.50;;;11.90;99.90;;;;;;4949744;28;20209;-63
2023/03/24 03:01:15;;;;;;;3.07;2.77;;;11.90;99.90;;;;;;4946809;28;20283;-65
2023/03/24 03:04:12;;;;;;;3.70;2.70;;;11.80;99.90;;;;;;4964725;28;20359;-65
2023/03/24 03:06:42;;;;;;;2.77;2.53;;;11.90;99.90;;;;;;4949375;28;20227;-64
2023/03/24 03:09:13;;;;;;;3.23;2.83;;;11.80;99.90;;;;;;4965997;28;20426;-65
2023/03/24 03:11:46;;;;;;;4.30;2.90;;;11.80;99.90;;;;;;4947488;28;20302;-64
2023/03/24 03:14:19;;;;;;;2.33;2.20;;;11.80;99.90;;;;;;4938417;28;20219;-64
2023/03/24 03:16:52;;;;;;;2.33;2.23;;;11.80;99.90;;;;;;4965773;28;20700;-64
2023/03/24 03:19:22;;;;;;;2.80;2.60;;;11.80;99.90;;;;;;4965603;28;20206;-64
2023/03/24 03:21:50;;;;;;;2.43;2.23;;;11.80;99.90;;;;;;4950815;28;20209;-64
2023/03/24 03:24:25;;;;;;;2.40;2.20;;;11.80;99.90;;;;;;4967500;28;20193;-64
2023/03/24 03:27:00;;;;;;;2.40;2.20;;;11.80;99.90;;;;;;4944436;29;20595;-64
2023/03/24 03:29:32;;;;;;;2.50;2.30;;;11.80;99.90;;;;;;4948799;28;20302;-64
2023/03/24 03:32:06;;;;;;;2.10;2.00;;;11.90;99.90;;;;;;4960232;28;20214;-64
2023/03/24 03:34:41;;;;;;;2.80;2.30;;;11.90;99.90;;;;;;4967004;28;20203;-64
2023/03/24 03:37:16;;;;;;;2.40;2.20;;;11.90;99.90;;;;;;4969811;28;20199;-65
2023/03/24 03:39:47;;;;;;;2.27;2.10;;;12.00;99.90;;;;;;4959280;28;20298;-64
2023/03/24 03:42:16;;;;;;;2.33;2.13;;;12.00;99.90;;;;;;4953849;28;20212;-63
2023/03/24 03:44:44;;;;;;;3.23;2.40;;;12.00;99.90;;;;;;4970667;28;20204;-64
2023/03/24 03:47:11;;;;;;;2.80;2.60;;;12.00;99.90;;;;;;4955255;28;20213;-64
2023/03/24 03:49:43;;;;;;;4.57;3.40;;;12.00;99.90;;;;;;4943681;28;20196;-64
2023/03/24 03:52:10;;;;;;;3.43;3.13;;;12.00;99.90;;;;;;4949443;28;20313;-63
2023/03/24 03:54:40;;;;;;;2.80;2.60;;;12.10;99.90;;;;;;4953061;28;20674;-63
2023/03/24 03:57:07;;;;;;;3.03;2.70;;;12.00;99.90;;;;;;4950339;28;20242;-64
2023/03/24 03:59:55;;;;;;;2.80;2.60;;;12.10;99.90;;;;;;4971617;28;20314;-65
2023/03/24 04:02:34;;;;;;;3.00;2.80;;;12.00;99.90;;;;;;4953315;28;20200;-65
2023/03/24 04:05:17;;;;;;;5.50;3.60;;;12.00;99.90;;;;;;4947961;28;20204;-65
2023/03/24 04:08:07;;;;;;;4.30;3.80;;;12.00;99.90;;;;;;4947974;28;20206;-64
2023/03/24 04:11:25;;;;;;;5.27;3.70;;;12.00;99.90;;;;;;4958779;28;20228;-64
2023/03/24 04:14:36;;;;;;;6.33;4.03;;;12.00;99.90;;;;;;4971443;28;20550;-64
2023/03/24 04:17:39;;;;;;;6.87;4.47;;;12.00;99.90;;;;;;4959117;28;20210;-62
2023/03/24 04:20:13;;;;;;;4.67;3.93;;;12.00;99.90;;;;;;4952582;28;20209;-64
2023/03/24 04:22:57;;;;;;;4.77;4.10;;;11.90;99.90;;;;;;4953238;28;20212;-64
2023/03/24 04:25:33;;;;;;;4.13;3.80;;;11.90;99.90;;;;;;4966832;28;20189;-65
2023/03/24 04:28:08;;;;;;;5.33;3.40;;;11.90;99.90;;;;;;4971196;28;20208;-64
2023/03/24 04:30:42;;;;;;;3.40;3.10;;;12.00;99.90;;;;;;4954363;28;20754;-65
2023/03/24 04:33:21;;;;;;;3.50;3.20;;;12.00;99.90;;;;;;4953561;28;20232;-65
2023/03/24 04:36:00;;;;;;;3.03;2.83;;;12.00;99.90;;;;;;4948165;28;20209;-65
2023/03/24 04:38:41;;;;;;;2.90;2.70;;;12.00;99.90;;;;;;4968354;28;20757;-64
2023/03/24 04:41:16;;;;;;;4.63;2.90;;;12.00;99.90;;;;;;4952841;28;20303;-64
2023/03/24 04:43:48;;;;;;;4.60;3.60;;;12.00;99.90;;;;;;4952420;28;20243;-64
2023/03/24 04:46:17;;;;;;;3.30;3.00;;;12.00;99.90;;;;;;4949665;28;20341;-65
2023/03/24 04:49:05;;;;;;;3.63;3.17;;;12.10;99.90;;;;;;4968544;28;20227;-64
2023/03/24 04:51:37;;;;;;;3.50;3.20;;;12.10;99.90;;;;;;4954612;28;20757;-64
2023/03/24 04:54:08;;;;;;;3.00;2.77;;;12.00;99.90;;;;;;4970360;28;20255;-65
2023/03/24 04:56:44;;;;;;;4.93;4.00;;;12.00;99.90;;;;;;4953655;28;20201;-64
2023/03/24 04:59:33;;;;;;;5.20;4.37;;;12.00;99.90;;;;;;4969919;28;20213;-65
2023/03/24 05:02:02;;;;;;;5.37;3.70;;;12.20;99.90;;;;;;4953584;28;20208;-65
2023/03/24 05:04:31;;;;;;;3.90;3.50;;;12.00;99.90;;;;;;4968302;28;20221;-64
2023/03/24 05:07:09;;;;;;;3.73;3.33;;;12.00;99.90;;;;;;4952752;28;20228;-64
2023/03/24 05:09:36;;;;;;;4.23;3.67;;;12.00;99.90;;;;;;4953078;28;20614;-65
2023/03/24 05:12:03;;;;;;;5.13;4.60;;;12.00;99.90;;;;;;4954189;28;20213;-65
2023/03/24 05:14:41;;;;;;;6.63;4.70;;;12.00;99.90;;;;;;4953871;28;20207;-65
2023/03/24 05:17:08;;;;;;;6.60;5.23;;;12.00;99.90;;;;;;4949206;28;20323;-65
2023/03/24 05:19:36;;;;;;;10.30;5.57;;;12.00;99.90;;;;;;4953426;28;20237;-65
2023/03/24 05:22:03;;;;;;;6.70;5.30;;;12.00;99.90;;;;;;4953620;28;20211;-64
2023/03/24 05:24:33;;;;;;;7.73;5.60;;;11.90;99.90;;;;;;4952435;28;20201;-64
2023/03/24 05:27:00;;;;;;;11.17;7.00;;;11.90;99.90;;;;;;4953174;28;20259;-63
2023/03/24 05:29:28;;;;;;;10.40;6.57;;;11.90;99.90;;;;;;4953257;28;20204;-65
2023/03/24 05:31:55;;;;;;;7.20;5.47;;;11.80;99.90;;;;;;4940874;28;20244;-65
2023/03/24 05:34:23;;;;;;;7.33;5.10;;;11.80;99.90;;;;;;4968863;28;20212;-63
2023/03/24 05:37:05;;;;;;;9.70;5.60;;;11.80;99.90;;;;;;4945427;28;20290;-64
2023/03/24 05:39:32;;;;;;;7.50;5.50;;;11.70;99.90;;;;;;4969732;28;20204;-64
2023/03/24 05:42:07;;;;;;;7.93;5.30;;;11.70;99.90;;;;;;4953617;28;20279;-64
2023/03/24 05:44:35;;;;;;;10.70;5.40;;;11.70;99.90;;;;;;4951956;28;20296;-64
2023/03/24 05:47:05;;;;;;;5.27;4.63;;;11.70;99.90;;;;;;4956121;28;20290;-64
2023/03/24 05:49:33;;;;;;;6.80;4.70;;;11.70;99.90;;;;;;4955392;28;20728;-65
2023/03/24 05:52:01;;;;;;;6.73;5.23;;;11.70;99.90;;;;;;4951521;28;20213;-64
2023/03/24 05:54:32;;;;;;;5.63;4.93;;;11.70;99.90;;;;;;4953288;28;20228;-64
2023/03/24 05:57:12;;;;;;;6.43;4.40;;;11.70;99.90;;;;;;4952069;28;20201;-64
2023/03/24 05:59:53;;;;;;;6.20;4.17;;;11.80;99.90;;;;;;4954134;28;20730;-64
2023/03/24 06:02:41;;;;;;;5.70;4.67;;;11.70;99.90;;;;;;4966980;28;20228;-65
2023/03/24 06:05:22;;;;;;;6.80;4.30;;;11.70;99.90;;;;;;4947194;28;20239;-63
2023/03/24 06:07:49;;;;;;;4.40;4.00;;;11.70;99.90;;;;;;4965303;28;20202;-63
2023/03/24 06:10:18;;;;;;;5.87;4.47;;;11.70;99.90;;;;;;4967792;28;20204;-63
2023/03/24 06:12:52;;;;;;;5.27;4.10;;;11.70;99.90;;;;;;4950113;28;20227;-64
2023/03/24 06:15:20;;;;;;;5.30;4.50;;;11.80;99.90;;;;;;4944874;28;20319;-63
2023/03/24 06:17:53;;;;;;;6.30;4.37;;;11.70;99.90;;;;;;4947696;28;20207;-64
2023/03/24 06:20:26;;;;;;;3.90;3.47;;;11.80;99.90;;;;;;4947658;28;20619;-63
2023/03/24 06:23:07;;;;;;;4.37;3.97;;;11.80;99.90;;;;;;4951581;28;20545;-64
2023/03/24 06:26:00;;;;;;;3.97;3.27;;;11.80;99.90;;;;;;4955586;28;20511;-65
2023/03/24 06:28:33;;;;;;;4.43;4.00;;;11.90;99.90;;;;;;4954304;28;20211;-63
2023/03/24 06:31:05;;;;;;;5.77;3.83;;;11.90;99.90;;;;;;4953866;28;20206;-64
2023/03/24 06:33:35;;;;;;;6.63;4.10;;;11.80;99.90;;;;;;4945611;28;20705;-65
2023/03/24 06:36:05;;;;;;;7.40;5.00;;;11.80;99.90;;;;;;4953093;28;20224;-64
2023/03/24 06:38:33;;;;;;;7.97;5.10;;;11.80;99.90;;;;;;4951233;28;20677;-64
2023/03/24 06:41:03;;;;;;;9.87;5.40;;;11.80;99.90;;;;;;4951836;28;20578;-64
2023/03/24 06:43:32;;;;;;;8.50;5.40;;;11.70;99.90;;;;;;4950571;28;20201;-64
2023/03/24 06:46:00;;;;;;;8.03;4.93;;;11.70;99.90;;;;;;4950735;28;20322;-64
2023/03/24 06:48:28;;;;;;;11.07;5.07;;;11.70;99.90;;;;;;4954436;28;20215;-64
2023/03/24 06:51:02;;;;;;;10.73;5.33;;;11.60;99.90;;;;;;4952281;28;20216;-63
2023/03/24 06:53:29;;;;;;;8.53;5.20;;;11.70;99.90;;;;;;4952716;28;20314;-64
2023/03/24 06:55:57;;;;;;;8.67;5.17;;;11.70;99.90;;;;;;4939179;28;20674;-64
2023/03/24 06:58:28;;;;;;;8.27;4.50;;;11.60;99.90;;;;;;4945946;28;20197;-65
2023/03/24 07:01:01;;;;;;;6.90;4.67;;;11.60;99.90;;;;;;4954101;28;20207;-64
2023/03/24 07:04:04;;;;;;;7.77;4.70;;;11.60;99.90;;;;;;4962742;28;20239;-64
2023/03/24 07:06:49;;;;;;;10.03;5.30;;;11.60;99.90;;;;;;4956419;28;20204;-64
2023/03/24 07:09:18;;;;;;;8.07;4.83;;;11.60;99.90;;;;;;4949881;28;20566;-65
2023/03/24 07:11:46;;;;;;;5.53;4.33;;;11.60;99.90;;;;;;4952533;28;20230;-64
2023/03/24 07:14:15;;;;;;;5.53;3.90;;;11.60;99.90;;;;;;4944875;28;20379;-64
2023/03/24 07:16:43;;;;;;;3.90;3.33;;;11.60;99.90;;;;;;4943331;28;20235;-64
2023/03/24 07:19:28;;;;;;;3.87;3.53;;;11.70;99.90;;;;;;4940333;28;20627;-63
2023/03/24 07:22:15;;;;;;;7.97;4.57;;;11.80;99.90;;;;;;4965136;28;20649;-64
2023/03/24 07:25:13;;;;;;;8.60;5.00;;;11.80;99.90;;;;;;4946298;28;20684;-65
2023/03/24 07:27:54;;;;;;;8.37;4.63;;;11.90;99.90;;;;;;4950181;28;20347;-65
2023/03/24 07:30:24;;;;;;;5.80;4.50;;;11.90;99.90;;;;;;4949306;28;20204;-64
2023/03/24 07:32:55;;;;;;;6.07;4.90;;;12.00;99.90;;;;;;4944314;28;20217;-64
2023/03/24 07:35:22;;;;;;;6.97;4.77;;;12.00;99.90;;;;;;4945654;28;20207;-64
2023/03/24 07:37:50;;;;;;;8.27;5.50;;;12.10;99.90;;;;;;4969902;28;20547;-64
2023/03/24 07:40:17;;;;;;;7.43;5.47;;;12.10;99.90;;;;;;4949125;28;20196;-63
2023/03/24 07:42:46;;;;;;;6.27;5.07;;;12.10;99.90;;;;;;4948459;28;20215;-64
2023/03/24 07:45:34;;;;;;;8.67;5.00;;;12.20;99.90;;;;;;4942766;28;20208;-65
2023/03/24 07:48:06;;;;;;;7.00;5.27;;;12.30;99.90;;;;;;4969375;28;20251;-64
2023/03/24 07:50:46;;;;;;;6.67;4.73;;;12.30;99.90;;;;;;4948890;28;20219;-65
2023/03/24 07:53:33;;;;;;;9.87;5.33;;;12.40;99.90;;;;;;4967979;28;20240;-64
2023/03/24 07:56:01;;;;;;;5.47;4.43;;;12.40;99.90;;;;;;4943063;28;20675;-63
2023/03/24 07:58:28;;;;;;;10.10;5.30;;;12.50;99.90;;;;;;4948701;28;20206;-64
2023/03/24 08:01:09;;;;;;;6.40;5.13;;;12.50;99.90;;;;;;4941705;28;20234;-65
2023/03/24 08:03:42;;;;;;;6.30;4.67;;;12.60;99.90;;;;;;4945755;28;20567;-64
2023/03/24 08:06:15;;;;;;;7.40;5.00;;;12.60;99.90;;;;;;4964513;28;20204;-64
2023/03/24 08:08:51;;;;;;;7.40;5.20;;;12.60;99.90;;;;;;4960678;28;20573;-64
2023/03/24 08:11:18;;;;;;;10.97;6.20;;;12.70;99.90;;;;;;4966236;28;20591;-63
2023/03/24 08:13:45;;;;;;;10.03;5.70;;;12.70;99.90;;;;;;4964825;28;20253;-64
2023/03/24 08:16:13;;;;;;;10.60;5.53;;;12.70;99.90;;;;;;4971022;28;20414;-65
2023/03/24 08:18:47;;;;;;;7.53;4.50;;;12.70;99.90;;;;;;4950033;28;20203;-64
2023/03/24 08:21:14;;;;;;;5.83;5.17;;;12.80;99.90;;;;;;4948822;28;20201;-64
2023/03/24 08:23:41;;;;;;;8.87;6.20;;;12.80;99.90;;;;;;4964156;28;20903;-64
2023/03/24 08:26:09;;;;;;;9.47;6.27;;;12.90;99.90;;;;;;4961883;28;20204;-64
2023/03/24 08:28:36;;;;;;;5.87;4.90;;;13.00;99.90;;;;;;4964506;28;20293;-64
2023/03/24 08:31:04;;;;;;;9.07;5.53;;;13.00;99.90;;;;;;4945319;29;20206;-64
2023/03/24 08:33:33;;;;;;;7.10;5.73;;;13.00;99.90;;;;;;4961078;28;20303;-65
2023/03/24 08:36:01;;;;;;;7.87;6.07;;;13.10;99.90;;;;;;4949963;28;20317;-64
2023/03/24 08:38:30;;;;;;;6.80;4.47;;;13.10;99.90;;;;;;4958687;28;20209;-64
2023/03/24 08:41:00;;;;;;;5.77;4.80;;;13.10;99.90;;;;;;4969520;28;20282;-63
2023/03/24 08:43:29;;;;;;;7.20;5.00;;;13.10;99.90;;;;;;4965281;28;20190;-64
2023/03/24 08:45:57;;;;;;;5.50;4.87;;;13.20;99.90;;;;;;4968867;28;20209;-64
2023/03/24 08:48:25;;;;;;;7.63;4.53;;;13.20;99.90;;;;;;4949956;28;20205;-64
2023/03/24 08:50:56;;;;;;;8.83;5.70;;;13.20;99.90;;;;;;4966455;28;20251;-63
2023/03/24 08:53:23;;;;;;;5.63;5.03;;;13.30;99.90;;;;;;4959957;28;20225;-65
2023/03/24 08:55:51;;;;;;;7.40;5.10;;;13.30;99.90;;;;;;4970019;28;20213;-64
2023/03/24 08:58:20;;;;;;;6.80;5.10;;;13.30;99.90;;;;;;4962611;28;20242;-65
2023/03/24 09:00:54;;;;;;;13.00;8.00;;;13.50;99.90;;;;;;4963453;28;20225;-64
2023/03/24 09:03:21;;;;;;;9.60;7.13;;;13.40;99.90;;;;;;4935269;28;20243;-65
2023/03/24 09:05:50;;;;;;;9.20;6.20;;;13.50;99.90;;;;;;4942049;29;20219;-65
2023/03/24 09:08:19;;;;;;;10.10;6.50;;;13.50;99.90;;;;;;4943947;29;20212;-63
2023/03/24 09:10:47;;;;;;;8.40;6.20;;;13.50;99.90;;;;;;4939525;29;20210;-65
2023/03/24 09:13:15;;;;;;;5.10;4.60;;;13.50;99.90;;;;;;4939671;29;20235;-64
2023/03/24 09:15:47;;;;;;;6.53;4.77;;;13.50;99.90;;;;;;4945326;28;20211;-64
2023/03/24 09:18:16;;;;;;;6.77;5.07;;;13.50;99.90;;;;;;4942876;29;20211;-66
2023/03/24 09:20:47;;;;;;;6.90;5.20;;;13.50;99.90;;;;;;4941747;28;20227;-65
2023/03/24 09:23:14;;;;;;;7.17;5.30;;;13.60;99.90;;;;;;4937429;29;20282;-64
2023/03/24 09:25:43;;;;;;;8.53;5.70;;;13.50;99.90;;;;;;4948013;29;20214;-63
2023/03/24 09:28:10;;;;;;;4.97;4.37;;;13.50;99.90;;;;;;4947385;29;20284;-64
2023/03/24 09:30:41;;;;;;;7.07;4.77;;;13.50;99.90;;;;;;4949219;29;20300;-65
2023/03/24 09:33:14;;;;;;;5.53;4.30;;;13.60;99.90;;;;;;4938139;29;20232;-64
2023/03/24 09:35:43;;;;;;;5.70;4.10;;;13.70;99.90;;;;;;4942846;29;20755;-64
2023/03/24 09:38:11;;;;;;;6.00;4.40;;;13.80;99.90;;;;;;4948492;29;20196;-64
2023/03/24 09:40:40;;;;;;;6.13;4.30;;;13.80;99.90;;;;;;4945418;29;20238;-64
2023/03/24 09:43:17;;;;;;;5.83;4.03;;;14.00;99.90;;;;;;4949124;29;20228;-64
2023/03/24 09:45:50;;;;;;;6.07;4.30;;;14.10;99.90;;;;;;4951499;29;20189;-64
2023/03/24 09:48:25;;;;;;;7.10;5.47;;;14.20;99.90;;;;;;4953158;29;20227;-64
2023/03/24 09:50:55;;;;;;;8.70;5.37;;;14.30;99.90;;;;;;4949763;28;20540;-64
2023/03/24 09:53:31;;;;;;;5.30;4.27;;;14.50;99.90;;;;;;4940260;29;20223;-64
2023/03/24 09:56:03;;;;;;;6.70;5.40;;;14.70;99.90;;;;;;4946229;29;20687;-64
2023/03/24 09:58:33;;;;;;;6.80;4.83;;;15.10;99.90;;;;;;4951226;29;20247;-64
2023/03/24 10:01:00;;;;;;;7.77;5.80;;;15.30;99.90;;;;;;4938942;28;20582;-63
2023/03/24 10:03:27;;;;;;;14.23;6.70;;;15.40;99.90;;;;;;4957190;28;20236;-63
2023/03/24 10:06:00;;;;;;;6.77;5.03;;;15.30;99.90;;;;;;4963782;28;20216;-63
2023/03/24 10:08:33;;;;;;;6.63;4.90;;;15.30;99.90;;;;;;4969111;28;20202;-63
2023/03/24 10:11:04;;;;;;;9.50;5.30;;;15.70;99.90;;;;;;4968719;28;20212;-63
2023/03/24 10:13:48;;;;;;;6.27;4.73;;;16.60;99.90;;;;;;4946911;28;20215;-63
2023/03/24 10:16:22;;;;;;;4.47;4.07;;;17.30;99.90;;;;;;4948595;28;20197;-63
2023/03/24 10:18:58;;;;;;;4.37;3.70;;;17.90;99.90;;;;;;4963490;28;20185;-63
2023/03/24 10:21:26;;;;;;;8.93;3.87;;;17.90;99.90;;;;;;4963900;28;20577;-64
2023/03/24 10:24:01;;;;;;;6.77;4.17;;;17.70;99.90;;;;;;4971364;28;20233;-64
2023/03/24 10:26:36;;;;;;;4.67;4.10;;;17.50;99.90;;;;;;4971223;28;20220;-63
2023/03/24 10:29:23;;;;;;;5.00;4.17;;;17.10;99.90;;;;;;4967711;28;20243;-63
2023/03/24 10:31:54;;;;;;;7.03;4.43;;;16.70;99.90;;;;;;4968777;28;20212;-64
2023/03/24 10:34:29;;;;;;;5.67;4.00;;;16.50;99.90;;;;;;4964265;28;20677;-63
2023/03/24 10:36:58;;;;;;;5.13;4.13;;;16.70;99.90;;;;;;4970544;28;20227;-64
2023/03/24 10:39:25;;;;;;;5.07;3.77;;;16.70;99.90;;;;;;4967443;28;20247;-63
2023/03/24 10:41:54;;;;;;;6.33;3.50;;;16.60;99.90;;;;;;4969949;28;20198;-64
2023/03/24 10:44:23;;;;;;;6.13;3.77;;;16.70;99.90;;;;;;4964731;28;20584;-64
2023/03/24 10:46:56;;;;;;;4.07;3.77;;;17.10;99.90;;;;;;4954345;28;20208;-64
2023/03/24 10:49:24;;;;;;;3.57;3.27;;;17.10;99.90;;;;;;4951764;28;20296;-64
2023/03/24 10:51:55;;;;;;;5.70;3.83;;;17.10;99.90;;;;;;4957811;28;20229;-64
2023/03/24 10:54:24;;;;;;;3.85;3.50;;;18.00;99.90;;;;;;4968949;28;20206;-64
2023/03/24 10:57:02;;;;;;;6.07;3.25;;;19.00;99.90;;;;;;4967948;28;20728;-64
2023/03/24 10:59:35;;;;;;;4.60;3.40;;;19.90;99.90;;;;;;4962901;28;20198;-63
2023/03/24 11:02:16;;;;;;;4.30;3.67;;;21.00;99.90;;;;;;4963180;28;20197;-64
2023/03/24 11:04:49;;;;;;;4.65;2.90;;;21.70;98.50;;;;;;4967175;28;20193;-64
2023/03/24 11:07:19;;;;;;;3.10;2.88;;;21.40;97.70;;;;;;4963596;28;20302;-63
2023/03/24 11:09:50;;;;;;;3.33;3.03;;;20.70;98.20;;;;;;4965169;28;20574;-63
2023/03/24 11:12:23;;;;;;;3.13;2.85;;;20.30;98.40;;;;;;4954764;28;20200;-65
2023/03/24 11:14:59;;;;;;;3.17;2.85;;;20.00;98.70;;;;;;4962572;28;20308;-64
2023/03/24 11:17:27;;;;;;;3.08;2.70;;;19.90;98.90;;;;;;4966787;28;20688;-64
2023/03/24 11:19:56;;;;;;;3.80;2.88;;;20.10;98.80;;;;;;4940752;29;20675;-64
2023/03/24 11:22:24;;;;;;;4.40;3.10;;;20.10;98.60;;;;;;4940442;28;20658;-64
2023/03/24 11:24:56;;;;;;;2.80;2.50;;;20.00;98.60;;;;;;4965353;28;20492;-65
2023/03/24 11:27:23;;;;;;;2.38;2.17;;;20.10;98.40;;;;;;4946827;28;20696;-65
2023/03/24 11:29:54;;;;;;;2.72;2.53;;;20.30;98.00;;;;;;4967576;28;20256;-64
2023/03/24 11:32:28;;;;;;;2.55;2.35;;;20.00;97.70;;;;;;4970054;28;20197;-64
2023/03/24 11:35:04;;;;;;;5.88;2.53;;;19.60;98.20;;;;;;4958661;28;20231;-64
2023/03/24 11:37:35;;;;;;;2.55;2.33;;;19.20;98.60;;;;;;4961336;28;20276;-64
2023/03/24 11:40:18;;;;;;;4.18;3.05;;;18.90;99.00;;;;;;4967141;28;20231;-64
2023/03/24 11:42:47;;;;;;;3.20;3.00;;;18.70;99.50;;;;;;4948026;28;20201;-63
2023/03/24 11:45:28;;;;;;;3.78;2.70;;;18.40;99.80;;;;;;4951294;28;20193;-63
2023/03/24 11:48:01;;;;;;;3.25;2.95;;;18.20;99.90;;;;;;4948248;28;20224;-64
2023/03/24 11:50:31;;;;;;;2.53;2.33;;;18.00;99.90;;;;;;4967734;28;20197;-63
2023/03/24 11:53:04;;;;;;;4.72;2.67;;;17.90;99.90;;;;;;4967719;28;20223;-62
2023/03/24 11:55:38;;;;;;;2.60;2.40;;;17.80;99.90;;;;;;4966341;28;20212;-63
2023/03/24 11:58:14;;;;;;;2.55;2.35;;;17.70;99.90;;;;;;4962372;28;20639;-62
2023/03/24 12:00:48;;;;;;;2.37;2.17;;;17.60;99.90;;;;;;4954919;28;20189;-64
2023/03/24 12:04:00;;;;;;;3.00;2.70;;;17.50;99.90;;;;;;4959127;28;20264;-65
2023/03/24 12:06:49;;;;;;;2.77;2.50;;;17.50;99.90;;;;;;4884693;29;20231;-63
2023/03/24 12:09:24;;;;;;;4.28;2.88;;;17.30;99.90;;;;;;4900699;29;20214;-64
2023/03/24 12:12:10;;;;;;;5.72;2.70;;;17.20;99.90;;;;;;4939818;28;20314;-63
2023/03/24 12:14:49;;;;;;;2.60;2.40;;;17.20;99.90;;;;;;4963032;28;20221;-64
2023/03/24 12:17:24;;;;;;;4.40;2.67;;;17.10;99.90;;;;;;4964730;28;20211;-63
2023/03/24 12:20:16;;;;;;;3.35;3.00;;;17.00;99.90;;;;;;4960637;28;20324;-64
2023/03/24 12:22:58;;;;;;;3.50;2.80;;;17.00;99.90;;;;;;4961788;28;20207;-64
2023/03/24 12:25:49;;;;;;;4.60;3.08;;;17.00;99.90;;;;;;4948428;28;20206;-63
2023/03/24 12:28:32;;;;;;;2.80;2.60;;;16.90;99.90;;;;;;4939406;28;20218;-63
2023/03/24 12:31:27;;;;;;;3.57;2.80;;;16.90;99.90;;;;;;4942296;28;20584;-63
2023/03/24 12:34:04;;;;;;;3.80;3.07;;;16.90;99.90;;;;;;4964096;28;20285;-63
2023/03/24 12:36:42;;;;;;;2.50;2.30;;;16.90;99.90;;;;;;4965585;28;20566;-63
2023/03/24 12:39:11;;;;;;;3.27;2.93;;;16.90;99.90;;;;;;4946404;28;20203;-62
2023/03/24 12:41:50;;;;;;;7.05;2.78;;;16.80;99.90;;;;;;4947105;28;20674;-64
2023/03/24 12:44:46;;;;;;;2.67;2.40;;;16.80;99.90;;;;;;4942553;29;20753;-63
2023/03/24 12:47:37;;;;;;;3.22;2.70;;;16.70;99.90;;;;;;4964743;28;20227;-63
2023/03/24 12:50:26;;;;;;;3.00;2.70;;;16.70;99.90;;;;;;4930810;28;20574;-64
2023/03/24 12:53:08;;;;;;;2.60;2.40;;;16.70;99.90;;;;;;4963535;28;20278;-63
2023/03/24 12:55:43;;;;;;;2.13;2.00;;;16.60;99.90;;;;;;4962236;28;20227;-63
2023/03/24 12:58:16;;;;;;;2.50;2.30;;;16.60;99.90;;;;;;4964808;28;20289;-62
2023/03/24 13:00:55;;;;;;;3.00;2.70;;;16.60;99.90;;;;;;4966958;28;20197;-63
2023/03/24 13:03:31;;;;;;;2.33;2.13;;;16.60;99.90;;;;;;4949564;28;20329;-64
2023/03/24 13:06:10;;;;;;;2.50;2.00;;;16.60;99.90;;;;;;4964505;28;20211;-64
2023/03/24 13:08:44;;;;;;;2.80;2.60;;;16.60;99.90;;;;;;4966883;28;20715;-65
2023/03/24 13:11:13;;;;;;;2.70;2.40;;;16.60;99.90;;;;;;4968450;28;20895;-64
2023/03/24 13:13:43;;;;;;;2.58;2.33;;;16.60;99.90;;;;;;4970270;28;20556;-63
2023/03/24 13:16:15;;;;;;;2.43;2.27;;;16.60;99.90;;;;;;4943984;28;20219;-63
2023/03/24 13:18:46;;;;;;;2.53;2.33;;;16.50;99.90;;;;;;4969778;28;20195;-63
2023/03/24 13:21:16;;;;;;;2.40;2.20;;;16.60;99.90;;;;;;4963154;28;20210;-64